sensor_id;sensor_type;location;lat;lon;timestamp;P1;durP1;ratioP1;P2;durP2;ratioP2
69856;SDS011;57147;53.582;10.112;2023-03-13T00:01:51;26.42;;;6.35;;
69856;SDS011;57147;53.582;10.112;2023-03-13T00:06:52;22.05;;;7.25;;
69856;SDS011;57147;53.582;10.112;2023-03-13T00:11:58;23.15;;;7.65;;
69856;SDS011;57147;53.582;10.112;2023-03-13T00:16:59;23.65;;;7.35;;
69856;SDS011;57147;53.582;10.112;2023-03-13T00:22:00;21.02;;;6.65;;
69856;SDS011;57147;53.582;10.112;2023-03-13T00:27:03;25.17;;;7.60;;
69856;SDS011;57147;53.582;10.112;2023-03-13T00:32:04;21.15;;;8.32;;
69856;SDS011;57147;53.582;10.112;2023-03-13T00:37:04;19.13;;;7.72;;
69856;SDS011;57147;53.582;10.112;2023-03-13T00:42:08;20.65;;;7.13;;
69856;SDS011;57147;53.582;10.112;2023-03-13T00:47:08;22.58;;;8.07;;
69856;SDS011;57147;53.582;10.112;2023-03-13T00:52:09;19.02;;;7.97;;
69856;SDS011;57147;53.582;10.112;2023-03-13T00:57:12;24.80;;;7.35;;
69856;SDS011;57147;53.582;10.112;2023-03-13T01:02:13;25.05;;;7.25;;
69856;SDS011;57147;53.582;10.112;2023-03-13T01:07:13;23.38;;;7.50;;
69856;SDS011;57147;53.582;10.112;2023-03-13T01:12:16;24.25;;;6.90;;
69856;SDS011;57147;53.582;10.112;2023-03-13T01:17:18;22.75;;;8.32;;
69856;SDS011;57147;53.582;10.112;2023-03-13T01:22:19;25.25;;;8.18;;
69856;SDS011;57147;53.582;10.112;2023-03-13T01:27:22;24.95;;;8.32;;
69856;SDS011;57147;53.582;10.112;2023-03-13T01:32:23;22.90;;;5.93;;
69856;SDS011;57147;53.582;10.112;2023-03-13T01:37:23;29.40;;;8.57;;
69856;SDS011;57147;53.582;10.112;2023-03-13T01:42:26;28.10;;;8.77;;
69856;SDS011;57147;53.582;10.112;2023-03-13T01:47:27;24.60;;;7.30;;
69856;SDS011;57147;53.582;10.112;2023-03-13T01:52:28;25.17;;;8.15;;
69856;SDS011;57147;53.582;10.112;2023-03-13T01:57:34;24.60;;;7.85;;
69856;SDS011;57147;53.582;10.112;2023-03-13T02:02:39;25.80;;;7.97;;
69856;SDS011;57147;53.582;10.112;2023-03-13T02:07:45;32.03;;;9.00;;
69856;SDS011;57147;53.582;10.112;2023-03-13T02:12:51;29.13;;;8.45;;
69856;SDS011;57147;53.582;10.112;2023-03-13T02:17:54;23.08;;;6.80;;
69856;SDS011;57147;53.582;10.112;2023-03-13T02:22:57;28.80;;;7.75;;
69856;SDS011;57147;53.582;10.112;2023-03-13T02:28:05;29.38;;;8.23;;
69856;SDS011;57147;53.582;10.112;2023-03-13T02:33:08;20.17;;;4.03;;
69856;SDS011;57147;53.582;10.112;2023-03-13T02:38:10;20.58;;;7.88;;
69856;SDS011;57147;53.582;10.112;2023-03-13T02:43:17;23.60;;;7.10;;
69856;SDS011;57147;53.582;10.112;2023-03-13T02:48:27;26.10;;;7.60;;
69856;SDS011;57147;53.582;10.112;2023-03-13T02:53:30;23.40;;;6.80;;
69856;SDS011;57147;53.582;10.112;2023-03-13T02:58:40;23.33;;;8.07;;
69856;SDS011;57147;53.582;10.112;2023-03-13T03:03:42;24.77;;;7.05;;
69856;SDS011;57147;53.582;10.112;2023-03-13T03:08:43;28.38;;;6.93;;
69856;SDS011;57147;53.582;10.112;2023-03-13T03:13:46;25.92;;;6.85;;
69856;SDS011;57147;53.582;10.112;2023-03-13T03:18:47;24.92;;;7.90;;
69856;SDS011;57147;53.582;10.112;2023-03-13T03:23:48;29.95;;;7.57;;
69856;SDS011;57147;53.582;10.112;2023-03-13T03:28:53;20.80;;;7.38;;
69856;SDS011;57147;53.582;10.112;2023-03-13T03:33:54;23.92;;;8.52;;
69856;SDS011;57147;53.582;10.112;2023-03-13T03:38:55;21.63;;;7.88;;
69856;SDS011;57147;53.582;10.112;2023-03-13T03:43:59;17.48;;;6.60;;
69856;SDS011;57147;53.582;10.112;2023-03-13T03:49:01;23.50;;;6.35;;
69856;SDS011;57147;53.582;10.112;2023-03-13T03:54:05;19.83;;;4.65;;
69856;SDS011;57147;53.582;10.112;2023-03-13T03:59:09;23.83;;;6.65;;
69856;SDS011;57147;53.582;10.112;2023-03-13T04:04:13;23.77;;;6.45;;
69856;SDS011;57147;53.582;10.112;2023-03-13T04:09:15;28.70;;;8.25;;
69856;SDS011;57147;53.582;10.112;2023-03-13T04:14:24;16.05;;;5.38;;
69856;SDS011;57147;53.582;10.112;2023-03-13T04:19:25;15.80;;;5.00;;
69856;SDS011;57147;53.582;10.112;2023-03-13T04:24:26;23.20;;;6.38;;
69856;SDS011;57147;53.582;10.112;2023-03-13T04:29:31;17.52;;;7.18;;
69856;SDS011;57147;53.582;10.112;2023-03-13T04:34:32;16.50;;;5.22;;
69856;SDS011;57147;53.582;10.112;2023-03-13T04:39:32;24.80;;;4.80;;
69856;SDS011;57147;53.582;10.112;2023-03-13T04:44:36;19.02;;;5.55;;
69856;SDS011;57147;53.582;10.112;2023-03-13T04:49:37;22.08;;;6.63;;
69856;SDS011;57147;53.582;10.112;2023-03-13T04:54:40;19.55;;;6.25;;
69856;SDS011;57147;53.582;10.112;2023-03-13T04:59:46;21.85;;;4.55;;
69856;SDS011;57147;53.582;10.112;2023-03-13T05:04:48;15.45;;;6.78;;
69856;SDS011;57147;53.582;10.112;2023-03-13T05:09:48;24.60;;;6.32;;
69856;SDS011;57147;53.582;10.112;2023-03-13T05:14:51;20.00;;;5.57;;
69856;SDS011;57147;53.582;10.112;2023-03-13T05:19:52;25.80;;;7.57;;
69856;SDS011;57147;53.582;10.112;2023-03-13T05:24:53;17.30;;;3.92;;
69856;SDS011;57147;53.582;10.112;2023-03-13T05:29:56;27.42;;;6.72;;
69856;SDS011;57147;53.582;10.112;2023-03-13T05:34:57;21.95;;;5.82;;
69856;SDS011;57147;53.582;10.112;2023-03-13T05:39:58;19.40;;;5.07;;
69856;SDS011;57147;53.582;10.112;2023-03-13T05:45:01;17.27;;;7.13;;
69856;SDS011;57147;53.582;10.112;2023-03-13T05:50:02;16.50;;;5.20;;
69856;SDS011;57147;53.582;10.112;2023-03-13T05:55:06;21.77;;;5.85;;
69856;SDS011;57147;53.582;10.112;2023-03-13T06:00:13;14.15;;;5.75;;
69856;SDS011;57147;53.582;10.112;2023-03-13T06:05:16;16.63;;;4.45;;
69856;SDS011;57147;53.582;10.112;2023-03-13T06:10:17;11.50;;;5.15;;
69856;SDS011;57147;53.582;10.112;2023-03-13T06:15:21;11.90;;;5.97;;
69856;SDS011;57147;53.582;10.112;2023-03-13T06:20:22;13.15;;;4.65;;
69856;SDS011;57147;53.582;10.112;2023-03-13T06:25:22;8.70;;;4.97;;
69856;SDS011;57147;53.582;10.112;2023-03-13T06:30:26;10.88;;;3.00;;
69856;SDS011;57147;53.582;10.112;2023-03-13T06:35:27;9.70;;;4.60;;
69856;SDS011;57147;53.582;10.112;2023-03-13T06:40:27;11.80;;;5.55;;
69856;SDS011;57147;53.582;10.112;2023-03-13T06:45:30;6.43;;;3.95;;
69856;SDS011;57147;53.582;10.112;2023-03-13T06:50:31;12.18;;;4.55;;
69856;SDS011;57147;53.582;10.112;2023-03-13T06:55:38;10.00;;;4.28;;
69856;SDS011;57147;53.582;10.112;2023-03-13T07:00:41;4.97;;;3.20;;
69856;SDS011;57147;53.582;10.112;2023-03-13T07:05:42;6.20;;;3.85;;
69856;SDS011;57147;53.582;10.112;2023-03-13T07:10:42;9.02;;;4.40;;
69856;SDS011;57147;53.582;10.112;2023-03-13T07:15:46;5.55;;;2.38;;
69856;SDS011;57147;53.582;10.112;2023-03-13T07:20:50;7.47;;;5.80;;
69856;SDS011;57147;53.582;10.112;2023-03-13T07:25:55;7.97;;;4.88;;
69856;SDS011;57147;53.582;10.112;2023-03-13T07:36:17;6.22;;;3.88;;
69856;SDS011;57147;53.582;10.112;2023-03-13T07:41:26;9.05;;;5.68;;
69856;SDS011;57147;53.582;10.112;2023-03-13T07:46:31;8.85;;;5.10;;
69856;SDS011;57147;53.582;10.112;2023-03-13T07:51:31;8.32;;;4.97;;
69856;SDS011;57147;53.582;10.112;2023-03-13T07:56:34;8.18;;;5.70;;
69856;SDS011;57147;53.582;10.112;2023-03-13T08:01:48;7.32;;;4.78;;
69856;SDS011;57147;53.582;10.112;2023-03-13T08:06:49;9.40;;;4.70;;
69856;SDS011;57147;53.582;10.112;2023-03-13T08:11:51;9.45;;;5.93;;
69856;SDS011;57147;53.582;10.112;2023-03-13T08:17:08;9.77;;;6.78;;
69856;SDS011;57147;53.582;10.112;2023-03-13T08:27:39;6.38;;;5.20;;
69856;SDS011;57147;53.582;10.112;2023-03-13T08:32:43;5.53;;;5.03;;
69856;SDS011;57147;53.582;10.112;2023-03-13T08:37:43;6.88;;;6.13;;
69856;SDS011;57147;53.582;10.112;2023-03-13T08:42:44;5.43;;;4.35;;
69856;SDS011;57147;53.582;10.112;2023-03-13T08:47:48;7.15;;;6.60;;
69856;SDS011;57147;53.582;10.112;2023-03-13T08:52:51;5.00;;;4.53;;
69856;SDS011;57147;53.582;10.112;2023-03-13T08:57:52;6.30;;;5.57;;
69856;SDS011;57147;53.582;10.112;2023-03-13T09:02:55;8.20;;;7.40;;
69856;SDS011;57147;53.582;10.112;2023-03-13T09:07:56;9.80;;;7.55;;
69856;SDS011;57147;53.582;10.112;2023-03-13T09:12:59;8.02;;;5.63;;
69856;SDS011;57147;53.582;10.112;2023-03-13T09:18:02;7.57;;;5.43;;
69856;SDS011;57147;53.582;10.112;2023-03-13T09:23:03;9.68;;;7.07;;
69856;SDS011;57147;53.582;10.112;2023-03-13T09:28:04;8.57;;;6.30;;
69856;SDS011;57147;53.582;10.112;2023-03-13T09:33:07;7.45;;;6.18;;
69856;SDS011;57147;53.582;10.112;2023-03-13T09:38:11;8.32;;;6.38;;
69856;SDS011;57147;53.582;10.112;2023-03-13T09:43:14;8.70;;;7.88;;
69856;SDS011;57147;53.582;10.112;2023-03-13T09:48:29;6.75;;;5.63;;
69856;SDS011;57147;53.582;10.112;2023-03-13T09:53:35;9.52;;;8.52;;
69856;SDS011;57147;53.582;10.112;2023-03-13T09:58:46;8.52;;;7.18;;
69856;SDS011;57147;53.582;10.112;2023-03-13T10:03:57;10.52;;;8.25;;
69856;SDS011;57147;53.582;10.112;2023-03-13T10:09:04;9.48;;;8.00;;
69856;SDS011;57147;53.582;10.112;2023-03-13T10:14:19;10.35;;;7.10;;
69856;SDS011;57147;53.582;10.112;2023-03-13T10:19:30;9.55;;;7.53;;
69856;SDS011;57147;53.582;10.112;2023-03-13T10:24:34;8.77;;;6.97;;
69856;SDS011;57147;53.582;10.112;2023-03-13T10:29:41;8.32;;;7.53;;
69856;SDS011;57147;53.582;10.112;2023-03-13T10:34:48;5.93;;;5.13;;
69856;SDS011;57147;53.582;10.112;2023-03-13T10:39:59;5.97;;;5.03;;
69856;SDS011;57147;53.582;10.112;2023-03-13T10:45:13;5.63;;;4.70;;
69856;SDS011;57147;53.582;10.112;2023-03-13T10:50:19;5.43;;;4.80;;
69856;SDS011;57147;53.582;10.112;2023-03-13T10:55:23;5.25;;;4.75;;
69856;SDS011;57147;53.582;10.112;2023-03-13T11:00:29;7.80;;;5.15;;
69856;SDS011;57147;53.582;10.112;2023-03-13T11:05:39;7.38;;;5.38;;
69856;SDS011;57147;53.582;10.112;2023-03-13T11:15:51;6.15;;;4.25;;
69856;SDS011;57147;53.582;10.112;2023-03-13T11:20:59;5.47;;;4.97;;
69856;SDS011;57147;53.582;10.112;2023-03-13T11:26:05;4.90;;;3.63;;
69856;SDS011;57147;53.582;10.112;2023-03-13T11:31:17;5.60;;;4.25;;
69856;SDS011;57147;53.582;10.112;2023-03-13T11:36:25;4.25;;;1.70;;
69856;SDS011;57147;53.582;10.112;2023-03-13T11:41:38;5.93;;;3.00;;
69856;SDS011;57147;53.582;10.112;2023-03-13T11:46:51;5.72;;;3.60;;
69856;SDS011;57147;53.582;10.112;2023-03-13T11:52:18;4.97;;;3.05;;
69856;SDS011;57147;53.582;10.112;2023-03-13T11:57:29;4.07;;;3.05;;
69856;SDS011;57147;53.582;10.112;2023-03-13T12:02:36;4.43;;;2.95;;
69856;SDS011;57147;53.582;10.112;2023-03-13T12:07:45;5.25;;;2.72;;
69856;SDS011;57147;53.582;10.112;2023-03-13T12:12:50;4.07;;;1.45;;
69856;SDS011;57147;53.582;10.112;2023-03-13T12:17:59;3.00;;;2.60;;
69856;SDS011;57147;53.582;10.112;2023-03-13T12:23:06;6.07;;;4.10;;
69856;SDS011;57147;53.582;10.112;2023-03-13T12:28:26;5.78;;;2.60;;
69856;SDS011;57147;53.582;10.112;2023-03-13T12:33:33;4.43;;;2.80;;
69856;SDS011;57147;53.582;10.112;2023-03-13T12:38:45;2.72;;;2.15;;
69856;SDS011;57147;53.582;10.112;2023-03-13T12:43:50;3.13;;;2.83;;
69856;SDS011;57147;53.582;10.112;2023-03-13T12:49:06;5.53;;;2.83;;
69856;SDS011;57147;53.582;10.112;2023-03-13T12:59:48;2.88;;;2.47;;
69856;SDS011;57147;53.582;10.112;2023-03-13T13:04:53;3.90;;;2.53;;
69856;SDS011;57147;53.582;10.112;2023-03-13T13:10:11;6.40;;;3.28;;
69856;SDS011;57147;53.582;10.112;2023-03-13T13:15:18;5.60;;;3.70;;
69856;SDS011;57147;53.582;10.112;2023-03-13T13:20:26;4.50;;;2.95;;
69856;SDS011;57147;53.582;10.112;2023-03-13T13:25:34;4.97;;;2.53;;
69856;SDS011;57147;53.582;10.112;2023-03-13T13:30:35;5.18;;;2.72;;
69856;SDS011;57147;53.582;10.112;2023-03-13T13:35:36;4.65;;;3.03;;
69856;SDS011;57147;53.582;10.112;2023-03-13T13:40:39;4.38;;;2.33;;
69856;SDS011;57147;53.582;10.112;2023-03-13T13:45:40;3.33;;;2.25;;
69856;SDS011;57147;53.582;10.112;2023-03-13T13:56:41;4.55;;;2.75;;
69856;SDS011;57147;53.582;10.112;2023-03-13T14:01:44;5.30;;;3.45;;
69856;SDS011;57147;53.582;10.112;2023-03-13T14:06:46;3.60;;;2.47;;
69856;SDS011;57147;53.582;10.112;2023-03-13T14:11:55;3.13;;;2.53;;
69856;SDS011;57147;53.582;10.112;2023-03-13T14:16:56;4.07;;;3.10;;
69856;SDS011;57147;53.582;10.112;2023-03-13T14:21:59;3.88;;;2.03;;
69856;SDS011;57147;53.582;10.112;2023-03-13T14:32:16;4.10;;;1.85;;
69856;SDS011;57147;53.582;10.112;2023-03-13T14:42:40;4.25;;;1.77;;
69856;SDS011;57147;53.582;10.112;2023-03-13T14:47:48;7.00;;;2.72;;
69856;SDS011;57147;53.582;10.112;2023-03-13T14:52:54;4.43;;;2.58;;
69856;SDS011;57147;53.582;10.112;2023-03-13T14:58:03;4.53;;;3.10;;
69856;SDS011;57147;53.582;10.112;2023-03-13T15:13:36;3.30;;;2.22;;
69856;SDS011;57147;53.582;10.112;2023-03-13T15:18:37;3.55;;;2.47;;
69856;SDS011;57147;53.582;10.112;2023-03-13T15:23:38;3.60;;;3.28;;
69856;SDS011;57147;53.582;10.112;2023-03-13T15:28:44;3.35;;;2.13;;
69856;SDS011;57147;53.582;10.112;2023-03-13T15:33:45;4.45;;;2.13;;
69856;SDS011;57147;53.582;10.112;2023-03-13T15:38:50;5.63;;;2.28;;
69856;SDS011;57147;53.582;10.112;2023-03-13T15:43:53;3.63;;;2.28;;
69856;SDS011;57147;53.582;10.112;2023-03-13T15:48:55;3.22;;;2.10;;
69856;SDS011;57147;53.582;10.112;2023-03-13T15:53:56;2.78;;;2.28;;
69856;SDS011;57147;53.582;10.112;2023-03-13T15:58:59;2.50;;;2.30;;
69856;SDS011;57147;53.582;10.112;2023-03-13T16:04:00;2.20;;;1.65;;
69856;SDS011;57147;53.582;10.112;2023-03-13T16:09:02;3.95;;;2.05;;
69856;SDS011;57147;53.582;10.112;2023-03-13T16:14:07;2.78;;;1.95;;
69856;SDS011;57147;53.582;10.112;2023-03-13T16:19:08;3.65;;;2.75;;
69856;SDS011;57147;53.582;10.112;2023-03-13T16:24:09;5.80;;;2.40;;
69856;SDS011;57147;53.582;10.112;2023-03-13T16:29:13;3.88;;;2.95;;
69856;SDS011;57147;53.582;10.112;2023-03-13T16:34:14;4.75;;;3.13;;
69856;SDS011;57147;53.582;10.112;2023-03-13T16:39:15;2.53;;;2.30;;
69856;SDS011;57147;53.582;10.112;2023-03-13T16:44:21;3.15;;;1.88;;
69856;SDS011;57147;53.582;10.112;2023-03-13T16:49:22;6.88;;;3.10;;
69856;SDS011;57147;53.582;10.112;2023-03-13T16:54:22;5.95;;;2.45;;
69856;SDS011;57147;53.582;10.112;2023-03-13T16:59:26;3.67;;;3.08;;
69856;SDS011;57147;53.582;10.112;2023-03-13T17:04:26;4.65;;;2.88;;
69856;SDS011;57147;53.582;10.112;2023-03-13T17:09:27;3.13;;;1.88;;
69856;SDS011;57147;53.582;10.112;2023-03-13T17:14:30;6.18;;;3.03;;
69856;SDS011;57147;53.582;10.112;2023-03-13T17:19:31;3.63;;;3.00;;
69856;SDS011;57147;53.582;10.112;2023-03-13T17:24:31;11.05;;;10.20;;
69856;SDS011;57147;53.582;10.112;2023-03-13T17:29:34;3.42;;;3.03;;
69856;SDS011;57147;53.582;10.112;2023-03-13T17:34:35;5.18;;;4.88;;
69856;SDS011;57147;53.582;10.112;2023-03-13T17:39:36;3.00;;;2.70;;
69856;SDS011;57147;53.582;10.112;2023-03-13T17:44:39;6.00;;;5.60;;
69856;SDS011;57147;53.582;10.112;2023-03-13T17:49:41;6.45;;;5.95;;
69856;SDS011;57147;53.582;10.112;2023-03-13T17:54:42;4.57;;;4.18;;
69856;SDS011;57147;53.582;10.112;2023-03-13T17:59:47;5.60;;;5.15;;
69856;SDS011;57147;53.582;10.112;2023-03-13T18:04:48;6.47;;;5.93;;
69856;SDS011;57147;53.582;10.112;2023-03-13T18:09:48;3.78;;;2.85;;
69856;SDS011;57147;53.582;10.112;2023-03-13T18:14:51;8.80;;;8.10;;
69856;SDS011;57147;53.582;10.112;2023-03-13T18:19:52;5.20;;;4.78;;
69856;SDS011;57147;53.582;10.112;2023-03-13T18:24:54;16.42;;;15.48;;
69856;SDS011;57147;53.582;10.112;2023-03-13T18:29:58;6.30;;;4.78;;
69856;SDS011;57147;53.582;10.112;2023-03-13T18:34:58;3.80;;;2.58;;
69856;SDS011;57147;53.582;10.112;2023-03-13T18:39:59;5.22;;;3.28;;
69856;SDS011;57147;53.582;10.112;2023-03-13T18:45:02;4.72;;;2.25;;
69856;SDS011;57147;53.582;10.112;2023-03-13T18:50:08;5.97;;;2.88;;
69856;SDS011;57147;53.582;10.112;2023-03-13T18:55:16;10.50;;;9.63;;
69856;SDS011;57147;53.582;10.112;2023-03-13T19:00:21;14.60;;;13.65;;
69856;SDS011;57147;53.582;10.112;2023-03-13T19:05:25;8.32;;;7.50;;
69856;SDS011;57147;53.582;10.112;2023-03-13T19:10:27;19.60;;;18.73;;
69856;SDS011;57147;53.582;10.112;2023-03-13T19:15:31;7.53;;;5.55;;
69856;SDS011;57147;53.582;10.112;2023-03-13T19:25:55;9.07;;;3.58;;
69856;SDS011;57147;53.582;10.112;2023-03-13T19:30:58;7.07;;;3.40;;
69856;SDS011;57147;53.582;10.112;2023-03-13T19:35:59;8.93;;;5.63;;
69856;SDS011;57147;53.582;10.112;2023-03-13T19:41:13;10.48;;;7.95;;
69856;SDS011;57147;53.582;10.112;2023-03-13T19:46:19;8.98;;;6.30;;
69856;SDS011;57147;53.582;10.112;2023-03-13T19:51:21;9.05;;;8.25;;
69856;SDS011;57147;53.582;10.112;2023-03-13T19:56:23;9.95;;;5.70;;
69856;SDS011;57147;53.582;10.112;2023-03-13T20:01:35;10.73;;;7.38;;
69856;SDS011;57147;53.582;10.112;2023-03-13T20:06:39;10.98;;;7.25;;
69856;SDS011;57147;53.582;10.112;2023-03-13T20:11:41;10.15;;;5.93;;
69856;SDS011;57147;53.582;10.112;2023-03-13T20:16:44;8.60;;;6.45;;
69856;SDS011;57147;53.582;10.112;2023-03-13T20:21:45;10.55;;;7.13;;
69856;SDS011;57147;53.582;10.112;2023-03-13T20:26:46;9.30;;;4.97;;
69856;SDS011;57147;53.582;10.112;2023-03-13T20:31:49;9.90;;;6.00;;
69856;SDS011;57147;53.582;10.112;2023-03-13T20:36:49;11.95;;;6.18;;
69856;SDS011;57147;53.582;10.112;2023-03-13T20:41:50;6.53;;;2.40;;
69856;SDS011;57147;53.582;10.112;2023-03-13T20:46:53;10.77;;;5.22;;
69856;SDS011;57147;53.582;10.112;2023-03-13T20:51:54;9.82;;;8.82;;
69856;SDS011;57147;53.582;10.112;2023-03-13T20:56:55;27.17;;;25.65;;
69856;SDS011;57147;53.582;10.112;2023-03-13T21:01:58;7.43;;;6.18;;
69856;SDS011;57147;53.582;10.112;2023-03-13T21:06:58;16.77;;;14.60;;
69856;SDS011;57147;53.582;10.112;2023-03-13T21:11:59;11.52;;;7.25;;
69856;SDS011;57147;53.582;10.112;2023-03-13T21:17:02;6.03;;;4.20;;
69856;SDS011;57147;53.582;10.112;2023-03-13T21:22:03;10.85;;;9.75;;
69856;SDS011;57147;53.582;10.112;2023-03-13T21:27:04;13.23;;;8.07;;
69856;SDS011;57147;53.582;10.112;2023-03-13T21:32:07;10.30;;;7.78;;
69856;SDS011;57147;53.582;10.112;2023-03-13T21:37:08;9.15;;;6.30;;
69856;SDS011;57147;53.582;10.112;2023-03-13T21:42:08;11.35;;;8.63;;
69856;SDS011;57147;53.582;10.112;2023-03-13T21:47:13;8.95;;;7.63;;
69856;SDS011;57147;53.582;10.112;2023-03-13T21:52:13;9.13;;;8.30;;
69856;SDS011;57147;53.582;10.112;2023-03-13T21:57:15;8.95;;;8.13;;
69856;SDS011;57147;53.582;10.112;2023-03-13T22:02:18;7.35;;;6.70;;
69856;SDS011;57147;53.582;10.112;2023-03-13T22:07:19;5.45;;;5.03;;
69856;SDS011;57147;53.582;10.112;2023-03-13T22:12:20;6.97;;;6.40;;
69856;SDS011;57147;53.582;10.112;2023-03-13T22:17:24;4.68;;;4.32;;
69856;SDS011;57147;53.582;10.112;2023-03-13T22:22:25;3.90;;;3.33;;
69856;SDS011;57147;53.582;10.112;2023-03-13T22:27:26;4.50;;;3.15;;
69856;SDS011;57147;53.582;10.112;2023-03-13T22:32:29;4.72;;;3.22;;
69856;SDS011;57147;53.582;10.112;2023-03-13T22:37:30;5.13;;;3.13;;
69856;SDS011;57147;53.582;10.112;2023-03-13T22:42:31;5.18;;;4.13;;
69856;SDS011;57147;53.582;10.112;2023-03-13T22:47:34;4.78;;;3.63;;
69856;SDS011;57147;53.582;10.112;2023-03-13T22:52:36;5.72;;;3.42;;
69856;SDS011;57147;53.582;10.112;2023-03-13T22:57:37;6.00;;;4.25;;
69856;SDS011;57147;53.582;10.112;2023-03-13T23:02:40;8.77;;;5.78;;
69856;SDS011;57147;53.582;10.112;2023-03-13T23:07:41;10.68;;;9.57;;
69856;SDS011;57147;53.582;10.112;2023-03-13T23:12:42;11.27;;;7.25;;
69856;SDS011;57147;53.582;10.112;2023-03-13T23:17:45;5.60;;;3.28;;
69856;SDS011;57147;53.582;10.112;2023-03-13T23:22:46;8.27;;;7.40;;
69856;SDS011;57147;53.582;10.112;2023-03-13T23:27:46;5.15;;;4.45;;
69856;SDS011;57147;53.582;10.112;2023-03-13T23:32:50;4.63;;;2.08;;
69856;SDS011;57147;53.582;10.112;2023-03-13T23:37:51;6.43;;;3.92;;
69856;SDS011;57147;53.582;10.112;2023-03-13T23:42:51;6.93;;;4.07;;
69856;SDS011;57147;53.582;10.112;2023-03-13T23:47:54;7.63;;;4.50;;
69856;SDS011;57147;53.582;10.112;2023-03-13T23:52:55;4.97;;;4.47;;
69856;SDS011;57147;53.582;10.112;2023-03-13T23:57:56;6.15;;;4.28;;
